Time;durP1;ratioP1;P1;durP2;ratioP2;P2;SDS_P1;SDS_P2;PMS_P1;PMS_P2;Temp;Humidity;BMP_temperature;BMP_pressure;BME280_temperature;BME280_humidity;BME280_pressure;Samples;Min_cycle;Max_cycle;Signal;HPM_P1;HPM_P2
2021/04/12 04:52:55;;;;;;;5.85;3.97;;;3.50;99.90;;;;;;4990485;23;20094;-63
2021/04/12 04:55:36;;;;;;;22.45;5.75;;;3.60;99.90;;;;;;4932301;29;20052;-64
2021/04/12 04:58:14;;;;;;;19.17;9.02;;;3.60;99.90;;;;;;4932888;29;20467;-66
2021/04/12 05:01:11;;;;;;;7.75;4.95;;;3.60;99.90;;;;;;4932649;29;20451;-65
2021/04/12 05:04:10;;;;;;;8.30;4.32;;;3.60;99.90;;;;;;4933058;29;20060;-65
2021/04/12 05:07:06;;;;;;;9.45;4.60;;;3.50;99.90;;;;;;4910497;29;20063;-66
2021/04/12 05:10:02;;;;;;;8.00;3.60;;;3.50;99.90;;;;;;4933316;29;20694;-66
2021/04/12 05:12:58;;;;;;;9.10;4.80;;;3.50;99.90;;;;;;4934219;29;20083;-66
2021/04/12 05:15:48;;;;;;;11.73;4.03;;;3.50;99.90;;;;;;4934050;29;20062;-65
2021/04/12 05:18:42;;;;;;;9.52;4.40;;;3.50;99.90;;;;;;4932690;29;20130;-65
2021/04/12 05:21:39;;;;;;;7.97;4.63;;;3.50;99.90;;;;;;4917628;29;20100;-66
2021/04/12 05:24:30;;;;;;;18.45;4.65;;;3.50;99.90;;;;;;4933625;29;20056;-66
2021/04/12 05:27:13;;;;;;;9.48;4.05;;;3.50;99.90;;;;;;4932778;29;20051;-65
2021/04/12 05:30:16;;;;;;;11.30;5.28;;;3.60;99.90;;;;;;4915156;29;20086;-66
2021/04/12 05:32:51;;;;;;;6.63;4.72;;;3.50;99.90;;;;;;4902632;29;20062;-65
2021/04/12 05:35:37;;;;;;;11.07;5.25;;;3.60;99.90;;;;;;4932058;29;20043;-65
2021/04/12 05:38:37;;;;;;;9.05;5.45;;;3.60;99.90;;;;;;4919366;29;20063;-65
2021/04/12 05:41:30;;;;;;;9.95;5.82;;;3.70;99.90;;;;;;4914591;29;20047;-65
2021/04/12 05:44:24;;;;;;;15.57;6.88;;;3.70;99.90;;;;;;4907310;29;20193;-65
2021/04/12 05:47:04;;;;;;;6.50;5.55;;;3.70;99.90;;;;;;4913369;29;20047;-66
2021/04/12 05:50:15;;;;;;;7.68;5.40;;;3.80;99.90;;;;;;4922270;29;20119;-66
2021/04/12 05:53:03;;;;;;;11.10;6.13;;;3.90;99.90;;;;;;4907090;29;20542;-65
2021/04/12 05:56:12;;;;;;;10.10;5.80;;;3.90;99.90;;;;;;4931851;29;20051;-66
2021/04/12 05:58:50;;;;;;;;;;;4.00;99.90;;;;;;4878301;29;20053;-66
2021/04/12 06:01:25;;;;;;;;;;;4.10;99.90;;;;;;4931714;29;20070;-66
2021/04/12 06:04:08;;;;;;;11.10;5.93;;;4.20;99.90;;;;;;4923746;29;20000;-66
2021/04/12 06:07:13;;;;;;;8.73;6.38;;;4.30;99.90;;;;;;4912676;29;20108;-65
2021/04/12 06:09:48;;;;;;;15.82;6.55;;;4.30;99.90;;;;;;4897140;29;20078;-65
2021/04/12 06:12:37;;;;;;;11.40;7.15;;;4.40;99.90;;;;;;4912534;29;20493;-66
2021/04/12 06:15:36;;;;;;;8.93;5.20;;;4.50;99.90;;;;;;4912486;29;20059;-66
2021/04/12 06:18:28;;;;;;;9.32;6.03;;;4.70;99.90;;;;;;4912469;29;20141;-66
2021/04/12 06:21:21;;;;;;;9.85;5.30;;;4.70;99.90;;;;;;4904689;29;20110;-64
2021/04/12 06:24:34;;;;;;;8.90;5.50;;;4.80;99.90;;;;;;4930036;29;20126;-66
2021/04/12 06:27:47;;;;;;;9.13;5.95;;;4.80;99.90;;;;;;4922235;29;20052;-65
2021/04/12 06:30:34;;;;;;;11.75;6.15;;;4.90;99.90;;;;;;4919307;29;20122;-65
2021/04/12 06:33:35;;;;;;;11.57;6.65;;;4.80;99.90;;;;;;4930865;29;20058;-66
2021/04/12 06:36:39;;;;;;;8.40;5.60;;;4.90;99.90;;;;;;4927614;29;20055;-65
2021/04/12 06:39:41;;;;;;;10.27;5.30;;;5.00;99.90;;;;;;4924336;29;20578;-65
2021/04/12 06:42:57;;;;;;;9.82;5.20;;;5.50;99.90;;;;;;4932869;29;20122;-66
2021/04/12 06:46:05;;;;;;;8.23;4.60;;;5.60;99.90;;;;;;4935226;29;20048;-66
2021/04/12 06:49:07;;;;;;;9.68;4.45;;;5.60;99.90;;;;;;4924649;29;20052;-65
2021/04/12 06:52:21;;;;;;;8.32;5.10;;;5.30;99.90;;;;;;4934933;29;20039;-65
2021/04/12 06:55:16;;;;;;;7.30;4.47;;;5.10;99.90;;;;;;4935042;29;20382;-66
2021/04/12 06:58:31;;;;;;;7.07;3.97;;;5.50;99.90;;;;;;4918081;29;20115;-65
2021/04/12 07:01:52;;;;;;;6.78;3.28;;;6.80;99.90;;;;;;4856845;29;20046;-66
2021/04/12 07:04:54;;;;;;;4.68;3.22;;;7.40;99.90;;;;;;4921326;29;20044;-66
2021/04/12 07:07:36;;;;;;;6.70;3.70;;;7.30;99.90;;;;;;4935134;29;20074;-66
2021/04/12 07:10:20;;;;;;;5.72;3.42;;;6.90;99.90;;;;;;4917923;29;20052;-65
2021/04/12 07:13:19;;;;;;;7.50;3.50;;;6.70;99.90;;;;;;4934468;29;20540;-66
2021/04/12 07:16:23;;;;;;;7.70;3.50;;;6.50;99.90;;;;;;4914606;29;20055;-66
2021/04/12 07:19:25;;;;;;;7.43;3.60;;;6.50;99.90;;;;;;4920573;29;20055;-66
2021/04/12 07:22:16;;;;;;;11.00;3.33;;;6.40;99.90;;;;;;4883303;29;20060;-64
2021/04/12 07:25:11;;;;;;;8.50;2.85;;;6.60;99.90;;;;;;4931009;29;20040;-66
2021/04/12 07:28:26;;;;;;;6.38;3.08;;;7.10;99.90;;;;;;4931600;29;20060;-66
2021/04/12 07:31:38;;;;;;;5.88;2.80;;;7.00;99.90;;;;;;4917642;29;20043;-67
2021/04/12 07:34:32;;;;;;;10.80;3.20;;;7.30;99.90;;;;;;4926505;29;20047;-66
2021/04/12 07:37:29;;;;;;;3.50;2.03;;;7.40;99.90;;;;;;4923776;29;20516;-65
2021/04/12 07:40:41;;;;;;;6.93;2.10;;;7.60;99.90;;;;;;4931410;29;20052;-66
2021/04/12 07:44:00;;;;;;;6.50;2.78;;;7.40;99.90;;;;;;4897606;29;20071;-66
2021/04/12 07:47:13;;;;;;;5.03;2.47;;;8.60;99.90;;;;;;4916861;29;20059;-66
2021/04/12 07:50:24;;;;;;;8.88;2.58;;;8.80;99.90;;;;;;4934548;29;20055;-66
2021/04/12 07:53:36;;;;;;;3.85;1.90;;;7.80;99.90;;;;;;4827914;29;20094;-66
2021/04/12 07:56:40;;;;;;;4.22;1.90;;;7.10;99.90;;;;;;4914927;29;20087;-65
2021/04/12 07:59:53;;;;;;;5.00;2.08;;;6.60;99.90;;;;;;4930728;29;20629;-66
2021/04/12 08:02:57;;;;;;;6.60;2.50;;;6.20;99.90;;;;;;4927287;29;20080;-66
2021/04/12 08:06:15;;;;;;;6.60;1.92;;;7.10;99.90;;;;;;4932789;29;20044;-66
2021/04/12 08:09:23;;;;;;;6.25;2.67;;;8.20;99.90;;;;;;4914624;29;20071;-65
2021/04/12 08:12:18;;;;;;;5.50;2.40;;;8.80;99.90;;;;;;4930960;29;20042;-66
2021/04/12 08:15:29;;;;;;;6.15;2.28;;;9.20;99.90;;;;;;4926962;29;20040;-66
2021/04/12 08:18:11;;;;;;;5.30;2.28;;;9.00;99.90;;;;;;4928718;29;20506;-67
2021/04/12 08:21:09;;;;;;;7.22;2.33;;;8.10;99.90;;;;;;4925797;29;20054;-65
2021/04/12 08:24:36;;;;;;;6.05;2.72;;;7.40;99.90;;;;;;4918917;29;20342;-66
2021/04/12 08:27:36;;;;;;;10.27;3.33;;;6.80;99.90;;;;;;4930931;29;20043;-66
2021/04/12 08:30:36;;;;;;;5.95;2.65;;;6.80;99.90;;;;;;4930587;29;21121;-65
2021/04/12 08:33:51;;;;;;;8.80;3.30;;;6.50;99.90;;;;;;4932739;29;20408;-65
2021/04/12 08:37:07;;;;;;;6.63;3.40;;;6.60;99.90;;;;;;4930005;29;20043;-65
2021/04/12 08:40:04;;;;;;;7.40;3.88;;;6.70;99.90;;;;;;4933118;29;20069;-65
2021/04/12 08:43:08;;;;;;;5.95;3.03;;;6.70;99.90;;;;;;4931372;29;20059;-65
2021/04/12 08:46:23;;;;;;;6.07;3.00;;;6.70;99.90;;;;;;4931157;29;20051;-65
2021/04/12 08:49:05;;;;;;;5.55;3.03;;;6.80;99.90;;;;;;4928892;29;20507;-66
2021/04/12 08:52:14;;;;;;;5.68;3.47;;;7.20;99.90;;;;;;4930672;29;20048;-66
2021/04/12 08:54:59;;;;;;;3.22;2.35;;;7.50;99.90;;;;;;4930399;29;20059;-66
2021/04/12 08:58:06;;;;;;;6.07;3.40;;;8.80;99.90;;;;;;4926405;29;20403;-66
2021/04/12 09:01:08;;;;;;;5.93;4.15;;;8.10;99.90;;;;;;4930135;29;20138;-65
2021/04/12 09:03:59;;;;;;;14.35;7.55;;;7.70;99.90;;;;;;4932107;29;20134;-66
2021/04/12 09:07:17;;;;;;;12.82;7.85;;;7.20;99.90;;;;;;4928642;29;20054;-65
2021/04/12 09:09:55;;;;;;;15.37;8.10;;;7.00;99.90;;;;;;4848952;29;20102;-67
2021/04/12 09:12:44;;;;;;;16.48;8.48;;;6.80;99.90;;;;;;4854142;29;20703;-66
2021/04/12 09:15:46;;;;;;;9.32;4.90;;;6.80;99.90;;;;;;4915331;29;20146;-66
2021/04/12 09:19:04;;;;;;;8.32;3.72;;;6.80;99.90;;;;;;4912956;29;20051;-66
2021/04/12 09:22:09;;;;;;;6.43;3.75;;;6.80;99.90;;;;;;4926840;29;20040;-66
2021/04/12 09:25:08;;;;;;;5.97;3.53;;;7.10;99.90;;;;;;4930022;29;20047;-66
2021/04/12 09:27:46;;;;;;;9.73;3.67;;;8.30;99.90;;;;;;4930870;29;20056;-67
2021/04/12 09:31:00;;;;;;;6.40;2.80;;;9.20;99.90;;;;;;4929640;29;20076;-67
2021/04/12 09:34:04;;;;;;;7.22;3.67;;;9.00;99.90;;;;;;4924088;29;20062;-67
2021/04/12 09:37:03;;;;;;;7.97;3.63;;;8.80;99.90;;;;;;4930464;29;20103;-66
2021/04/12 09:40:00;;;;;;;2.80;2.08;;;10.20;99.90;;;;;;4925071;29;20052;-67
2021/04/12 09:42:56;;;;;;;3.95;1.73;;;10.80;99.90;;;;;;4929566;29;20083;-66
2021/04/12 09:46:10;;;;;;;3.80;1.70;;;9.90;99.90;;;;;;4931829;29;20067;-66
2021/04/12 09:49:03;;;;;;;8.82;2.97;;;9.40;99.90;;;;;;4927176;29;20558;-66
2021/04/12 09:51:49;;;;;;;8.15;2.42;;;9.10;99.90;;;;;;4930793;29;20135;-67
2021/04/12 09:54:51;;;;;;;6.53;2.60;;;10.30;99.90;;;;;;4928861;29;20090;-66
2021/04/12 09:57:53;;;;;;;3.85;2.17;;;10.90;99.50;;;;;;4930640;29;20130;-66
2021/04/12 10:00:38;;;;;;;5.93;2.25;;;11.60;97.40;;;;;;4921856;29;20047;-67
2021/04/12 10:03:49;;;;;;;5.20;3.03;;;10.90;97.30;;;;;;4931714;29;20079;-66
2021/04/12 10:06:37;;;;;;;3.72;2.92;;;11.40;98.30;;;;;;4931883;29;20457;-66
2021/04/12 10:09:39;;;;;;;6.72;2.50;;;10.20;99.90;;;;;;4914507;29;20150;-67
2021/04/12 10:12:29;;;;;;;7.63;3.65;;;9.30;99.90;;;;;;4928214;29;20494;-66
2021/04/12 10:15:02;;;;;;;5.13;3.65;;;9.00;99.90;;;;;;4931211;29;20043;-66
2021/04/12 10:17:39;;;;;;;6.70;5.15;;;8.90;99.90;;;;;;4914328;29;20051;-67
2021/04/12 10:20:12;;;;;;;4.32;3.92;;;9.20;99.90;;;;;;4930699;29;20496;-66
2021/04/12 10:22:51;;;;;;;7.40;4.07;;;9.20;99.90;;;;;;4931643;29;20078;-66
2021/04/12 10:25:22;;;;;;;6.70;5.43;;;8.90;99.90;;;;;;4931482;29;20099;-67
2021/04/12 10:27:51;;;;;;;6.40;4.97;;;8.80;99.90;;;;;;4931292;29;20134;-66
2021/04/12 10:30:23;;;;;;;6.97;4.63;;;8.80;99.90;;;;;;4931326;29;20407;-66
2021/04/12 10:32:53;;;;;;;9.95;4.38;;;8.90;99.90;;;;;;4929058;29;20159;-67
2021/04/12 10:35:24;;;;;;;8.95;3.38;;;10.00;99.90;;;;;;4932223;29;20392;-67
2021/04/12 10:38:05;;;;;;;3.45;3.13;;;10.90;98.10;;;;;;4931687;29;20555;-67
2021/04/12 10:40:38;;;;;;;5.72;3.63;;;11.00;99.00;;;;;;4925602;29;20051;-66
2021/04/12 10:43:17;;;;;;;3.30;1.70;;;11.20;96.60;;;;;;4931306;29;20048;-67
2021/04/12 10:45:48;;;;;;;3.75;3.20;;;10.70;91.40;;;;;;4931021;29;20048;-67
2021/04/12 10:48:21;;;;;;;3.95;2.72;;;10.10;95.50;;;;;;4931712;29;20048;-67
2021/04/12 10:51:04;;;;;;;3.92;2.75;;;10.10;94.50;;;;;;4931244;29;20464;-65
2021/04/12 10:54:19;;;;;;;4.10;3.40;;;10.30;94.10;;;;;;4931623;29;20080;-67
2021/04/12 10:56:49;;;;;;;4.28;2.60;;;10.20;96.30;;;;;;4931684;29;20048;-67
2021/04/12 10:59:58;;;;;;;4.63;2.58;;;11.40;94.30;;;;;;4931656;29;20050;-67
2021/04/12 11:02:41;;;;;;;4.78;2.83;;;12.40;92.00;;;;;;4921838;29;20138;-66
2021/04/12 11:05:10;;;;;;;5.80;3.03;;;11.20;90.80;;;;;;4931833;29;20129;-66
2021/04/12 11:07:47;;;;;;;5.70;2.97;;;9.50;93.80;;;;;;4931472;29;20051;-66
2021/04/12 11:10:39;;;;;;;5.50;3.47;;;9.20;95.70;;;;;;4932464;29;20134;-66
2021/04/12 11:13:10;;;;;;;6.53;2.72;;;8.90;95.30;;;;;;4915007;29;20055;-65
2021/04/12 11:15:58;;;;;;;3.92;2.88;;;9.10;95.60;;;;;;4931166;29;20507;-66
2021/04/12 11:18:29;;;;;;;4.03;2.53;;;8.90;95.80;;;;;;4929762;29;20095;-65
2021/04/12 11:21:04;;;;;;;4.90;2.58;;;9.00;94.70;;;;;;4930737;29;20535;-72
2021/04/12 11:23:36;;;;;;;3.92;2.50;;;9.50;94.00;;;;;;4932920;29;20040;-69
2021/04/12 11:26:12;;;;;;;4.13;2.92;;;10.50;93.70;;;;;;4915643;29;20056;-69
2021/04/12 11:28:47;;;;;;;5.45;2.80;;;10.70;92.70;;;;;;4930089;29;20074;-68
2021/04/12 11:31:41;;;;;;;4.30;2.72;;;11.20;93.00;;;;;;4902979;29;20092;-69
2021/04/12 11:34:16;;;;;;;5.18;2.80;;;10.80;91.70;;;;;;4924693;29;20047;-69
2021/04/12 11:36:55;;;;;;;4.32;2.90;;;10.70;92.90;;;;;;4901377;29;20661;-69
2021/04/12 11:39:26;;;;;;;4.25;2.22;;;11.10;90.50;;;;;;4928959;29;20044;-69
2021/04/12 11:41:58;;;;;;;3.88;2.55;;;11.50;89.20;;;;;;4933299;29;20482;-68
2021/04/12 11:44:31;;;;;;;3.92;2.33;;;11.20;88.60;;;;;;4933601;29;20105;-69
2021/04/12 11:47:23;;;;;;;3.92;2.40;;;10.90;89.20;;;;;;4915694;29;20539;-67
2021/04/12 11:50:26;;;;;;;2.80;2.47;;;10.90;89.40;;;;;;4932658;29;20131;-65
2021/04/12 11:52:56;;;;;;;4.10;2.38;;;10.70;89.20;;;;;;4919637;29;20059;-65
2021/04/12 11:55:34;;;;;;;4.50;2.65;;;11.60;89.80;;;;;;4932771;29;20082;-68
2021/04/12 11:58:12;;;;;;;3.08;2.30;;;11.30;87.20;;;;;;4923466;29;20079;-66
2021/04/12 12:00:45;;;;;;;4.20;1.95;;;10.40;89.30;;;;;;4933622;29;20322;-66
2021/04/12 12:03:37;;;;;;;3.08;2.38;;;9.50;90.40;;;;;;4932929;29;20054;-66
2021/04/12 12:06:13;;;;;;;7.10;2.80;;;9.40;92.60;;;;;;4933450;29;20167;-67
2021/04/12 12:08:53;;;;;;;4.95;2.97;;;9.20;96.80;;;;;;4933269;29;20051;-67
2021/04/12 12:11:32;;;;;;;4.53;3.03;;;8.80;99.90;;;;;;4932918;29;20534;-67
2021/04/12 12:14:05;;;;;;;4.25;2.83;;;8.50;99.90;;;;;;4932973;29;20051;-67
2021/04/12 12:16:36;;;;;;;9.75;3.97;;;8.70;99.90;;;;;;4935536;29;20511;-66
2021/04/12 12:19:23;;;;;;;5.40;2.60;;;8.70;99.90;;;;;;4940774;29;20067;-67
2021/04/12 12:21:54;;;;;;;2.55;1.95;;;8.40;99.90;;;;;;4928763;29;20067;-68
2021/04/12 12:24:26;;;;;;;2.85;1.67;;;8.40;99.90;;;;;;4932498;29;20039;-68
2021/04/12 12:26:59;;;;;;;1.30;1.20;;;8.60;98.30;;;;;;4932997;29;20131;-67
2021/04/12 12:29:29;;;;;;;3.17;2.00;;;8.70;97.20;;;;;;4932929;29;20039;-67
2021/04/12 12:32:25;;;;;;;3.00;2.40;;;8.90;99.10;;;;;;4907739;29;20047;-67
2021/04/12 12:35:08;;;;;;;2.92;2.25;;;8.70;99.90;;;;;;4932692;29;20071;-67
2021/04/12 12:38:21;;;;;;;3.75;2.22;;;8.80;99.90;;;;;;4914863;29;20056;-68
2021/04/12 12:40:52;;;;;;;4.70;1.75;;;9.30;99.00;;;;;;4885436;29;20052;-68
2021/04/12 12:43:24;;;;;;;3.95;1.92;;;9.10;97.90;;;;;;4930588;29;20067;-68
2021/04/12 12:45:51;;;;;;;3.47;2.00;;;8.90;97.50;;;;;;4930152;29;20048;-67
2021/04/12 12:48:21;;;;;;;3.47;2.30;;;8.90;97.90;;;;;;4929770;29;20126;-67
2021/04/12 12:50:53;;;;;;;2.38;1.83;;;9.30;96.10;;;;;;4929585;29;20126;-67
2021/04/12 12:53:25;;;;;;;2.88;2.05;;;9.00;95.90;;;;;;4931188;29;20484;-67
2021/04/12 12:55:56;;;;;;;3.33;2.47;;;9.10;96.90;;;;;;4931356;29;20071;-67
2021/04/12 12:58:26;;;;;;;5.18;1.92;;;9.10;99.00;;;;;;4914656;29;20143;-67
2021/04/12 13:00:55;;;;;;;5.25;2.00;;;8.80;99.90;;;;;;4929454;29;20086;-68
2021/04/12 13:03:30;;;;;;;5.60;1.85;;;8.00;99.90;;;;;;4930538;29;20111;-67
2021/04/12 13:05:59;;;;;;;2.08;1.73;;;8.20;99.90;;;;;;4915970;29;20052;-67
2021/04/12 13:08:28;;;;;;;2.15;1.65;;;8.10;99.90;;;;;;4915043;29;20043;-68
2021/04/12 13:10:56;;;;;;;2.50;2.05;;;8.10;99.90;;;;;;4931061;29;20036;-68
2021/04/12 13:13:26;;;;;;;2.97;1.52;;;8.40;99.90;;;;;;4928088;29;20047;-68
2021/04/12 13:15:54;;;;;;;1.30;1.20;;;9.10;99.90;;;;;;4931502;29;20130;-67
2021/04/12 13:18:32;;;;;;;1.83;1.63;;;9.40;99.90;;;;;;4932388;29;20054;-67
2021/04/12 13:21:09;;;;;;;1.75;1.63;;;10.00;99.90;;;;;;4916465;29;20128;-67
2021/04/12 13:23:56;;;;;;;2.45;2.25;;;9.60;99.90;;;;;;4916430;29;20055;-67
2021/04/12 13:26:32;;;;;;;4.18;1.40;;;10.40;99.90;;;;;;4929235;29;20055;-67
2021/04/12 13:29:05;;;;;;;7.60;5.28;;;10.40;99.90;;;;;;4930231;29;20044;-66
2021/04/12 13:31:38;;;;;;;2.55;1.50;;;10.60;99.90;;;;;;4929481;29;20075;-69
2021/04/12 13:34:11;;;;;;;2.05;1.50;;;11.70;99.60;;;;;;4925906;29;20082;-70
2021/04/12 13:36:40;;;;;;;1.35;1.08;;;11.60;98.20;;;;;;4931610;29;20047;-71
2021/04/12 13:39:12;;;;;;;1.20;1.10;;;11.50;98.70;;;;;;4931001;29;20040;-68
2021/04/12 13:41:45;;;;;;;2.50;1.50;;;12.30;96.70;;;;;;4931922;29;20044;-69
2021/04/12 13:44:14;;;;;;;1.55;1.45;;;12.20;96.50;;;;;;4932149;29;20044;-69
2021/04/12 13:46:56;;;;;;;2.17;1.45;;;11.70;95.00;;;;;;4915128;29;20056;-69
2021/04/12 13:49:28;;;;;;;1.08;0.95;;;11.70;94.00;;;;;;4929119;29;20145;-70
2021/04/12 13:52:03;;;;;;;5.15;3.20;;;11.80;93.00;;;;;;4931504;29;20464;-69
2021/04/12 13:54:38;;;;;;;4.45;2.92;;;11.40;91.50;;;;;;4931387;29;20111;-69
2021/04/12 13:57:13;;;;;;;2.97;1.10;;;11.80;92.70;;;;;;4921961;29;20052;-70
2021/04/12 13:59:42;;;;;;;1.27;1.00;;;11.20;92.30;;;;;;4930682;29;20468;-67
2021/04/12 14:02:16;;;;;;;1.80;1.23;;;11.20;92.60;;;;;;4931993;29;20500;-68
2021/04/12 14:04:52;;;;;;;1.55;0.70;;;11.50;92.20;;;;;;4929524;29;20131;-68
2021/04/12 14:07:28;;;;;;;1.02;0.90;;;11.80;88.90;;;;;;4931284;29;20114;-67
2021/04/12 14:10:07;;;;;;;1.02;1.00;;;12.40;88.20;;;;;;4938815;29;20039;-67
2021/04/12 14:12:39;;;;;;;2.05;0.95;;;12.30;85.60;;;;;;4927593;29;20134;-67
2021/04/12 14:15:09;;;;;;;1.90;1.33;;;12.00;87.50;;;;;;4931125;29;20130;-67
2021/04/12 14:17:39;;;;;;;1.63;1.10;;;11.80;89.90;;;;;;4930235;29;20110;-66
2021/04/12 14:20:12;;;;;;;1.50;1.15;;;12.30;89.20;;;;;;4912570;29;20055;-66
2021/04/12 14:22:45;;;;;;;1.70;1.60;;;12.50;89.40;;;;;;4927608;29;20043;-65
2021/04/12 14:25:18;;;;;;;1.50;1.40;;;11.80;87.90;;;;;;4922849;29;20359;-65
2021/04/12 14:27:45;;;;;;;1.50;0.90;;;10.90;89.00;;;;;;4907450;29;20054;-65
2021/04/12 14:30:17;;;;;;;1.35;1.15;;;10.30;90.90;;;;;;4925923;29;20036;-65
2021/04/12 14:32:47;;;;;;;2.58;1.48;;;9.90;92.80;;;;;;4929401;29;20044;-65
2021/04/12 14:35:22;;;;;;;2.50;1.20;;;10.10;93.70;;;;;;4929934;29;20083;-65
2021/04/12 14:37:49;;;;;;;1.25;1.02;;;10.60;92.10;;;;;;4926842;29;20048;-66
2021/04/12 14:40:20;;;;;;;;;;;10.90;91.30;;;;;;4927691;29;20516;-65
2021/04/12 14:42:52;;;;;;;3.97;2.90;;;10.80;93.10;;;;;;4925956;29;19922;-68
2021/04/12 14:45:23;;;;;;;1.38;1.10;;;10.80;95.00;;;;;;4929676;29;20047;-68
2021/04/12 14:47:58;;;;;;;1.80;1.20;;;10.00;98.50;;;;;;4900363;29;20051;-66
2021/04/12 14:50:28;;;;;;;4.32;1.23;;;10.30;98.40;;;;;;4925978;29;20287;-67
2021/04/12 14:53:06;;;;;;;1.58;0.70;;;10.60;95.00;;;;;;4922561;29;20036;-67
2021/04/12 14:55:37;;;;;;;2.28;0.80;;;9.60;94.50;;;;;;4926946;29;20118;-66
2021/04/12 14:58:12;;;;;;;0.52;0.50;;;10.00;95.90;;;;;;4925646;29;20095;-67
2021/04/12 15:00:43;;;;;;;0.88;0.65;;;8.90;95.40;;;;;;4934578;29;20123;-67
2021/04/12 15:03:18;;;;;;;0.85;0.85;;;8.40;97.40;;;;;;4931195;29;20044;-65
2021/04/12 15:05:51;;;;;;;4.00;1.35;;;8.20;96.70;;;;;;4932086;29;20094;-67
2021/04/12 15:08:21;;;;;;;3.10;1.92;;;8.40;96.30;;;;;;4934441;29;20058;-65
2021/04/12 15:10:52;;;;;;;1.65;1.25;;;8.50;96.00;;;;;;4934275;29;20054;-66
2021/04/12 15:13:26;;;;;;;3.85;0.95;;;9.20;95.00;;;;;;4935751;29;20044;-66
2021/04/12 15:16:05;;;;;;;2.05;0.98;;;9.30;93.40;;;;;;4935105;29;20047;-67
2021/04/12 15:18:35;;;;;;;1.10;0.52;;;9.60;91.70;;;;;;4931851;29;20460;-66
2021/04/12 15:21:14;;;;;;;0.68;0.55;;;10.00;87.80;;;;;;4933860;29;20533;-66
2021/04/12 15:23:44;;;;;;;0.82;0.82;;;10.30;85.90;;;;;;4928991;29;20055;-65
2021/04/12 15:26:22;;;;;;;2.10;1.10;;;10.60;87.10;;;;;;4933871;29;20044;-65
2021/04/12 15:28:49;;;;;;;1.25;0.80;;;10.30;89.70;;;;;;4928011;29;20566;-66
2021/04/12 15:31:32;;;;;;;1.30;0.90;;;10.50;90.00;;;;;;4934160;29;20043;-65
2021/04/12 15:34:01;;;;;;;1.65;1.00;;;10.40;89.20;;;;;;4931698;29;20054;-66
2021/04/12 15:36:39;;;;;;;0.95;0.80;;;9.80;91.90;;;;;;4935624;29;20774;-66
2021/04/12 15:39:13;;;;;;;3.97;1.00;;;9.60;92.70;;;;;;4933309;29;20032;-67
2021/04/12 15:41:40;;;;;;;1.20;1.10;;;9.30;94.50;;;;;;4931876;29;20044;-67
2021/04/12 15:44:12;;;;;;;3.70;1.10;;;9.10;95.70;;;;;;4932784;29;20058;-67
2021/04/12 15:46:43;;;;;;;2.35;1.40;;;8.70;97.60;;;;;;4925875;29;20130;-67
2021/04/12 15:49:14;;;;;;;3.10;1.40;;;8.60;99.60;;;;;;4933497;29;20078;-68
2021/04/12 15:51:45;;;;;;;16.55;2.90;;;8.40;99.90;;;;;;4932711;29;20190;-67
2021/04/12 15:54:19;;;;;;;2.40;2.20;;;8.30;99.90;;;;;;4916346;29;20595;-66
2021/04/12 15:56:50;;;;;;;1.60;1.45;;;8.40;99.90;;;;;;4922061;29;20069;-67
2021/04/12 15:59:25;;;;;;;1.50;1.40;;;8.70;99.90;;;;;;4933250;29;20039;-66
2021/04/12 16:01:57;;;;;;;1.92;1.70;;;8.90;99.90;;;;;;4934058;29;20127;-65
2021/04/12 16:04:40;;;;;;;2.22;1.83;;;8.80;99.90;;;;;;4934076;29;20048;-67
2021/04/12 16:07:13;;;;;;;1.33;1.20;;;9.00;99.90;;;;;;4934072;29;20054;-66
2021/04/12 16:09:46;;;;;;;2.17;1.55;;;8.50;99.90;;;;;;4933424;29;20403;-66
2021/04/12 16:12:16;;;;;;;1.80;1.63;;;8.50;99.90;;;;;;4918209;29;20054;-67
2021/04/12 16:14:49;;;;;;;2.58;1.85;;;8.00;99.90;;;;;;4937209;29;20065;-67
2021/04/12 16:17:22;;;;;;;2.03;1.73;;;8.20;99.90;;;;;;4934464;29;20043;-66
2021/04/12 16:19:53;;;;;;;1.98;1.70;;;8.20;99.90;;;;;;4933767;29;20175;-66
2021/04/12 16:22:27;;;;;;;2.63;1.75;;;7.90;99.90;;;;;;4933891;29;20067;-67
2021/04/12 16:25:05;;;;;;;7.05;3.83;;;8.00;99.90;;;;;;4930577;29;20114;-67
2021/04/12 16:27:37;;;;;;;3.38;2.33;;;7.60;99.90;;;;;;4932712;29;20036;-66
2021/04/12 16:30:08;;;;;;;3.88;2.03;;;7.70;99.90;;;;;;4933233;29;20135;-66
2021/04/12 16:32:37;;;;;;;2.53;1.92;;;7.70;99.90;;;;;;4923059;29;20428;-67
2021/04/12 16:35:09;;;;;;;2.20;2.00;;;7.50;99.90;;;;;;4932072;29;20468;-67
2021/04/12 16:37:41;;;;;;;3.63;2.72;;;7.40;99.90;;;;;;4933199;29;20046;-67
2021/04/12 16:40:19;;;;;;;2.65;2.10;;;7.30;99.90;;;;;;4933464;29;20131;-67
2021/04/12 16:42:47;;;;;;;4.28;2.70;;;7.40;99.90;;;;;;4931588;29;20051;-66
2021/04/12 16:45:20;;;;;;;2.80;2.28;;;7.40;99.90;;;;;;4932464;29;20566;-67
2021/04/12 16:47:54;;;;;;;3.28;2.33;;;7.50;99.90;;;;;;4927017;29;20122;-67
2021/04/12 16:50:31;;;;;;;3.28;2.78;;;7.60;99.90;;;;;;4923174;29;20071;-67
2021/04/12 16:53:00;;;;;;;3.90;2.55;;;7.80;99.90;;;;;;4925463;29;20111;-66
2021/04/12 16:55:35;;;;;;;3.75;2.28;;;7.80;99.90;;;;;;4924127;29;20475;-66
2021/04/12 16:58:11;;;;;;;4.55;2.70;;;7.80;99.90;;;;;;4929537;29;20126;-67
2021/04/12 17:00:45;;;;;;;3.00;2.50;;;7.70;99.90;;;;;;4923272;29;20438;-65
2021/04/12 17:03:26;;;;;;;5.15;3.65;;;7.70;99.90;;;;;;4924489;29;20445;-67
2021/04/12 17:05:57;;;;;;;114.90;68.63;;;7.40;99.90;;;;;;4924518;29;20147;-67
2021/04/12 17:08:43;;;;;;;9.73;7.38;;;7.50;99.90;;;;;;4924766;29;20084;-67
2021/04/12 17:11:14;;;;;;;5.47;5.03;;;7.50;99.90;;;;;;4922184;29;20052;-67
2021/04/12 17:13:46;;;;;;;27.10;18.80;;;7.30;99.90;;;;;;4927000;29;20055;-68
2021/04/12 17:16:20;;;;;;;35.20;31.38;;;7.10;99.90;;;;;;4926363;29;20063;-67
2021/04/12 17:18:50;;;;;;;9.98;8.93;;;7.10;99.90;;;;;;4913851;29;20052;-68
2021/04/12 17:21:25;;;;;;;18.60;14.50;;;7.00;99.90;;;;;;4926423;29;20575;-67
2021/04/12 17:23:56;;;;;;;8.35;6.50;;;6.90;99.90;;;;;;4925695;29;20130;-68
2021/04/12 17:26:33;;;;;;;7.55;4.55;;;7.00;99.90;;;;;;4927091;29;20494;-67
2021/04/12 17:29:06;;;;;;;4.38;3.72;;;6.80;99.90;;;;;;4926522;29;20040;-67
2021/04/12 17:31:39;;;;;;;5.35;3.80;;;6.80;99.90;;;;;;4927464;29;20128;-67
2021/04/12 17:34:09;;;;;;;6.57;3.33;;;6.80;99.90;;;;;;4928588;29;20126;-68
2021/04/12 17:36:45;;;;;;;4.28;3.60;;;6.90;99.90;;;;;;4925208;29;20500;-67
2021/04/12 17:39:17;;;;;;;6.03;5.00;;;7.00;99.90;;;;;;4929696;29;20152;-68
2021/04/12 17:41:49;;;;;;;4.90;4.25;;;6.90;99.90;;;;;;4928793;29;20447;-68
2021/04/12 17:44:22;;;;;;;4.60;3.00;;;6.90;99.90;;;;;;4928058;29;20527;-67
2021/04/12 17:46:56;;;;;;;4.90;3.13;;;6.80;99.90;;;;;;4929506;29;20327;-67
2021/04/12 17:49:29;;;;;;;6.60;3.70;;;6.80;99.90;;;;;;4930560;29;20079;-67
2021/04/12 17:51:59;;;;;;;9.27;5.05;;;6.80;99.90;;;;;;4932611;29;20047;-66
2021/04/12 17:54:30;;;;;;;5.60;3.22;;;6.70;99.90;;;;;;4930090;29;20051;-68
2021/04/12 17:57:02;;;;;;;6.40;3.28;;;6.60;99.90;;;;;;4914865;29;20047;-68
2021/04/12 17:59:44;;;;;;;4.15;3.05;;;6.50;99.90;;;;;;4928859;29;20517;-67
2021/04/12 18:02:23;;;;;;;3.78;2.33;;;6.40;99.90;;;;;;4927288;29;20067;-67
2021/04/12 18:04:54;;;;;;;5.22;2.67;;;6.40;99.90;;;;;;4927754;29;20054;-67
2021/04/12 18:07:29;;;;;;;3.28;2.97;;;6.30;99.90;;;;;;4933986;29;20047;-68
2021/04/12 18:10:07;;;;;;;7.22;4.68;;;6.20;99.90;;;;;;4932303;29;20518;-67
2021/04/12 18:12:40;;;;;;;7.70;3.40;;;6.10;99.90;;;;;;4930590;29;20115;-67
2021/04/12 18:15:22;;;;;;;4.70;3.20;;;5.90;99.90;;;;;;4926673;29;20075;-68
2021/04/12 18:18:01;;;;;;;2.08;1.90;;;5.90;99.90;;;;;;4924795;29;20523;-67
2021/04/12 18:20:37;;;;;;;3.90;2.47;;;5.80;99.90;;;;;;4924874;29;20058;-66
2021/04/12 18:23:10;;;;;;;3.05;2.28;;;5.80;99.90;;;;;;4925606;29;20122;-66
2021/04/12 18:25:43;;;;;;;2.40;2.20;;;5.70;99.90;;;;;;4932507;29;20511;-67
2021/04/12 18:28:16;;;;;;;4.18;2.70;;;5.70;99.90;;;;;;4931571;29;20063;-67
2021/04/12 18:30:54;;;;;;;5.20;3.08;;;5.60;99.90;;;;;;4931611;29;20051;-66
2021/04/12 18:33:29;;;;;;;7.20;4.53;;;5.50;99.90;;;;;;4931971;29;20040;-65
2021/04/12 18:36:00;;;;;;;6.13;5.38;;;5.40;99.90;;;;;;4931517;29;20248;-67
2021/04/12 18:38:35;;;;;;;7.10;5.05;;;5.30;99.90;;;;;;4932093;29;20119;-67
2021/04/12 18:41:12;;;;;;;5.60;4.85;;;5.20;99.90;;;;;;4931104;29;20043;-67
2021/04/12 18:43:49;;;;;;;5.20;3.70;;;5.10;99.90;;;;;;4930156;29;20086;-67
2021/04/12 18:46:55;;;;;;;5.45;4.05;;;5.00;99.90;;;;;;4931671;29;20043;-67
2021/04/12 18:49:28;;;;;;;4.30;3.95;;;4.90;99.90;;;;;;4921015;29;20182;-69
2021/04/12 18:52:01;;;;;;;6.53;3.67;;;5.00;99.90;;;;;;4931491;29;20196;-68
2021/04/12 18:54:33;;;;;;;5.45;4.13;;;4.90;99.90;;;;;;4935193;29;20216;-67
2021/04/12 18:57:07;;;;;;;4.93;3.50;;;4.90;99.90;;;;;;4935369;29;20414;-67
2021/04/12 19:00:00;;;;;;;6.20;4.38;;;4.70;99.90;;;;;;4932288;29;20054;-65
2021/04/12 19:02:40;;;;;;;5.70;4.10;;;4.60;99.90;;;;;;4918857;29;20123;-68
2021/04/12 19:05:16;;;;;;;11.25;7.03;;;4.50;99.90;;;;;;4931451;29;20211;-68
2021/04/12 19:07:53;;;;;;;14.02;9.30;;;4.40;99.90;;;;;;4931835;29;20103;-68
2021/04/12 19:10:35;;;;;;;8.35;5.55;;;4.40;99.90;;;;;;4931404;29;20066;-69